sensor_id;sensor_type;location;lat;lon;timestamp;temperature;humidity
6008;DHT22;3032;49.484;11.112;2023-04-07T00:01:01;2.60;99.90
6008;DHT22;3032;49.484;11.112;2023-04-07T00:03:27;2.70;99.90
6008;DHT22;3032;49.484;11.112;2023-04-07T00:05:53;2.90;99.90
6008;DHT22;3032;49.484;11.112;2023-04-07T00:08:18;3.00;99.90
6008;DHT22;3032;49.484;11.112;2023-04-07T00:10:45;3.00;99.90
6008;DHT22;3032;49.484;11.112;2023-04-07T00:13:11;2.70;99.90
6008;DHT22;3032;49.484;11.112;2023-04-07T00:15:36;2.30;99.90
6008;DHT22;3032;49.484;11.112;2023-04-07T00:18:02;2.10;99.90
6008;DHT22;3032;49.484;11.112;2023-04-07T00:20:28;2.00;99.90
6008;DHT22;3032;49.484;11.112;2023-04-07T00:22:53;1.80;99.90
6008;DHT22;3032;49.484;11.112;2023-04-07T00:25:19;2.00;99.90
6008;DHT22;3032;49.484;11.112;2023-04-07T00:27:44;2.10;99.90
6008;DHT22;3032;49.484;11.112;2023-04-07T00:30:12;2.30;99.90
6008;DHT22;3032;49.484;11.112;2023-04-07T00:32:39;2.30;99.90
6008;DHT22;3032;49.484;11.112;2023-04-07T00:35:05;2.30;99.90
6008;DHT22;3032;49.484;11.112;2023-04-07T00:37:32;2.30;99.90
6008;DHT22;3032;49.484;11.112;2023-04-07T00:39:57;2.40;99.90
6008;DHT22;3032;49.484;11.112;2023-04-07T00:42:23;2.40;99.90
6008;DHT22;3032;49.484;11.112;2023-04-07T00:44:49;2.60;99.90
6008;DHT22;3032;49.484;11.112;2023-04-07T00:47:14;2.90;99.90
6008;DHT22;3032;49.484;11.112;2023-04-07T00:49:40;3.10;99.90
6008;DHT22;3032;49.484;11.112;2023-04-07T00:52:07;3.30;99.90
6008;DHT22;3032;49.484;11.112;2023-04-07T00:54:33;3.50;99.90
6008;DHT22;3032;49.484;11.112;2023-04-07T00:56:59;3.70;99.90
6008;DHT22;3032;49.484;11.112;2023-04-07T00:59:26;3.90;99.90
6008;DHT22;3032;49.484;11.112;2023-04-07T01:04:49;4.20;99.90
6008;DHT22;3032;49.484;11.112;2023-04-07T01:07:25;4.10;99.90
6008;DHT22;3032;49.484;11.112;2023-04-07T01:09:56;4.50;99.90
6008;DHT22;3032;49.484;11.112;2023-04-07T01:12:59;4.40;99.90
6008;DHT22;3032;49.484;11.112;2023-04-07T01:15:22;4.60;99.90
6008;DHT22;3032;49.484;11.112;2023-04-07T01:17:54;3.30;99.90
6008;DHT22;3032;49.484;11.112;2023-04-07T01:20:22;2.40;99.90
6008;DHT22;3032;49.484;11.112;2023-04-07T01:22:55;2.40;99.90
6008;DHT22;3032;49.484;11.112;2023-04-07T01:30:31;2.70;99.90
6008;DHT22;3032;49.484;11.112;2023-04-07T01:32:59;2.90;99.90
6008;DHT22;3032;49.484;11.112;2023-04-07T01:35:28;3.10;99.90
6008;DHT22;3032;49.484;11.112;2023-04-07T01:37:55;3.50;99.90
6008;DHT22;3032;49.484;11.112;2023-04-07T01:40:22;3.90;99.90
6008;DHT22;3032;49.484;11.112;2023-04-07T01:42:49;4.40;99.90
6008;DHT22;3032;49.484;11.112;2023-04-07T01:45:15;4.30;99.90
6008;DHT22;3032;49.484;11.112;2023-04-07T01:47:42;4.00;99.90
6008;DHT22;3032;49.484;11.112;2023-04-07T01:50:09;3.90;99.90
6008;DHT22;3032;49.484;11.112;2023-04-07T01:52:36;3.80;99.90
6008;DHT22;3032;49.484;11.112;2023-04-07T01:55:03;3.80;99.90
6008;DHT22;3032;49.484;11.112;2023-04-07T01:57:29;3.80;99.90
6008;DHT22;3032;49.484;11.112;2023-04-07T01:59:55;4.00;99.90
6008;DHT22;3032;49.484;11.112;2023-04-07T02:02:21;4.30;99.90
6008;DHT22;3032;49.484;11.112;2023-04-07T02:04:57;3.70;99.90
6008;DHT22;3032;49.484;11.112;2023-04-07T02:07:51;3.90;99.90
6008;DHT22;3032;49.484;11.112;2023-04-07T02:10:20;3.80;99.90
6008;DHT22;3032;49.484;11.112;2023-04-07T02:12:48;3.90;99.90
6008;DHT22;3032;49.484;11.112;2023-04-07T02:15:14;3.90;99.90
6008;DHT22;3032;49.484;11.112;2023-04-07T02:17:43;4.00;99.90
6008;DHT22;3032;49.484;11.112;2023-04-07T02:20:11;4.10;99.90
6008;DHT22;3032;49.484;11.112;2023-04-07T02:22:38;3.70;99.90
6008;DHT22;3032;49.484;11.112;2023-04-07T02:25:30;3.00;99.90
6008;DHT22;3032;49.484;11.112;2023-04-07T02:27:57;2.60;99.90
6008;DHT22;3032;49.484;11.112;2023-04-07T02:30:24;2.40;99.90
6008;DHT22;3032;49.484;11.112;2023-04-07T02:32:50;2.20;99.90
6008;DHT22;3032;49.484;11.112;2023-04-07T02:35:16;2.40;99.90
6008;DHT22;3032;49.484;11.112;2023-04-07T02:37:43;2.10;99.90
6008;DHT22;3032;49.484;11.112;2023-04-07T02:40:09;1.90;99.90
6008;DHT22;3032;49.484;11.112;2023-04-07T02:42:35;2.10;99.90
6008;DHT22;3032;49.484;11.112;2023-04-07T02:45:04;2.10;99.90
6008;DHT22;3032;49.484;11.112;2023-04-07T02:47:30;2.10;99.90
6008;DHT22;3032;49.484;11.112;2023-04-07T02:49:56;2.10;99.90
6008;DHT22;3032;49.484;11.112;2023-04-07T02:52:22;2.00;99.90
6008;DHT22;3032;49.484;11.112;2023-04-07T02:54:47;2.00;99.90
6008;DHT22;3032;49.484;11.112;2023-04-07T02:57:13;2.00;99.90
6008;DHT22;3032;49.484;11.112;2023-04-07T02:59:39;1.80;99.90
6008;DHT22;3032;49.484;11.112;2023-04-07T03:02:04;1.80;99.90
6008;DHT22;3032;49.484;11.112;2023-04-07T03:04:30;1.80;99.90
6008;DHT22;3032;49.484;11.112;2023-04-07T03:06:56;1.80;99.90
6008;DHT22;3032;49.484;11.112;2023-04-07T03:09:21;2.00;99.90
6008;DHT22;3032;49.484;11.112;2023-04-07T03:11:47;2.40;99.90
6008;DHT22;3032;49.484;11.112;2023-04-07T03:14:13;2.90;99.90
6008;DHT22;3032;49.484;11.112;2023-04-07T03:16:38;3.20;99.90
6008;DHT22;3032;49.484;11.112;2023-04-07T03:19:04;3.40;99.90
6008;DHT22;3032;49.484;11.112;2023-04-07T03:21:29;3.50;99.90
6008;DHT22;3032;49.484;11.112;2023-04-07T03:23:56;3.70;99.90
6008;DHT22;3032;49.484;11.112;2023-04-07T03:26:21;3.80;99.90
6008;DHT22;3032;49.484;11.112;2023-04-07T03:28:47;3.90;99.90
6008;DHT22;3032;49.484;11.112;2023-04-07T03:31:13;3.90;99.90
6008;DHT22;3032;49.484;11.112;2023-04-07T03:33:38;3.80;99.90
6008;DHT22;3032;49.484;11.112;2023-04-07T03:36:04;3.00;99.90
6008;DHT22;3032;49.484;11.112;2023-04-07T03:38:30;3.00;99.90
6008;DHT22;3032;49.484;11.112;2023-04-07T03:40:56;2.90;99.90
6008;DHT22;3032;49.484;11.112;2023-04-07T03:43:21;3.00;99.90
6008;DHT22;3032;49.484;11.112;2023-04-07T03:45:47;3.30;99.90
6008;DHT22;3032;49.484;11.112;2023-04-07T03:48:12;3.50;99.90
6008;DHT22;3032;49.484;11.112;2023-04-07T03:50:39;3.70;99.90
6008;DHT22;3032;49.484;11.112;2023-04-07T03:53:05;3.90;99.90
6008;DHT22;3032;49.484;11.112;2023-04-07T03:55:30;4.00;99.90
6008;DHT22;3032;49.484;11.112;2023-04-07T03:57:56;4.00;99.90
6008;DHT22;3032;49.484;11.112;2023-04-07T04:00:22;4.20;99.90
6008;DHT22;3032;49.484;11.112;2023-04-07T04:02:47;4.30;99.90
6008;DHT22;3032;49.484;11.112;2023-04-07T04:05:13;4.20;99.90
6008;DHT22;3032;49.484;11.112;2023-04-07T04:07:39;4.20;99.90
6008;DHT22;3032;49.484;11.112;2023-04-07T04:10:05;4.30;99.90
6008;DHT22;3032;49.484;11.112;2023-04-07T04:12:30;4.00;99.90
6008;DHT22;3032;49.484;11.112;2023-04-07T04:14:56;4.00;99.90
6008;DHT22;3032;49.484;11.112;2023-04-07T04:17:22;4.00;99.90
6008;DHT22;3032;49.484;11.112;2023-04-07T04:19:47;3.80;99.90
6008;DHT22;3032;49.484;11.112;2023-04-07T04:22:13;3.80;99.90
6008;DHT22;3032;49.484;11.112;2023-04-07T04:24:38;3.90;99.90
6008;DHT22;3032;49.484;11.112;2023-04-07T04:27:06;3.70;99.90
6008;DHT22;3032;49.484;11.112;2023-04-07T04:29:32;3.70;99.90
6008;DHT22;3032;49.484;11.112;2023-04-07T04:31:57;3.70;99.90
6008;DHT22;3032;49.484;11.112;2023-04-07T04:34:23;3.60;99.90
6008;DHT22;3032;49.484;11.112;2023-04-07T04:36:48;3.50;99.90
6008;DHT22;3032;49.484;11.112;2023-04-07T04:39:14;3.50;99.90
6008;DHT22;3032;49.484;11.112;2023-04-07T04:41:39;3.30;99.90
6008;DHT22;3032;49.484;11.112;2023-04-07T04:44:05;3.10;99.90
6008;DHT22;3032;49.484;11.112;2023-04-07T04:46:31;2.90;99.90
6008;DHT22;3032;49.484;11.112;2023-04-07T04:48:56;2.50;99.90
6008;DHT22;3032;49.484;11.112;2023-04-07T04:51:23;2.30;99.90
6008;DHT22;3032;49.484;11.112;2023-04-07T04:53:48;2.50;99.90
6008;DHT22;3032;49.484;11.112;2023-04-07T04:56:14;2.80;99.90
6008;DHT22;3032;49.484;11.112;2023-04-07T04:58:40;3.10;99.90
6008;DHT22;3032;49.484;11.112;2023-04-07T05:01:13;3.40;99.90
6008;DHT22;3032;49.484;11.112;2023-04-07T05:03:39;3.60;99.90
6008;DHT22;3032;49.484;11.112;2023-04-07T05:06:05;3.70;99.90
6008;DHT22;3032;49.484;11.112;2023-04-07T05:08:31;3.60;99.90
6008;DHT22;3032;49.484;11.112;2023-04-07T05:10:56;3.80;99.90
6008;DHT22;3032;49.484;11.112;2023-04-07T05:13:22;4.10;99.90
6008;DHT22;3032;49.484;11.112;2023-04-07T05:15:48;4.20;99.90
6008;DHT22;3032;49.484;11.112;2023-04-07T05:18:14;4.30;99.90
6008;DHT22;3032;49.484;11.112;2023-04-07T05:20:39;3.90;99.90
6008;DHT22;3032;49.484;11.112;2023-04-07T05:23:05;3.90;99.90
6008;DHT22;3032;49.484;11.112;2023-04-07T05:25:34;3.80;99.90
6008;DHT22;3032;49.484;11.112;2023-04-07T05:27:59;3.90;99.90
6008;DHT22;3032;49.484;11.112;2023-04-07T05:30:25;4.10;99.90
6008;DHT22;3032;49.484;11.112;2023-04-07T05:32:52;4.20;99.90
6008;DHT22;3032;49.484;11.112;2023-04-07T05:35:18;4.50;99.90
6008;DHT22;3032;49.484;11.112;2023-04-07T05:37:43;5.90;99.90
6008;DHT22;3032;49.484;11.112;2023-04-07T05:40:10;7.80;99.90
6008;DHT22;3032;49.484;11.112;2023-04-07T05:42:35;9.00;97.90
6008;DHT22;3032;49.484;11.112;2023-04-07T05:45:01;9.40;95.00
6008;DHT22;3032;49.484;11.112;2023-04-07T05:47:27;10.10;93.50
6008;DHT22;3032;49.484;11.112;2023-04-07T05:49:53;11.00;91.40
6008;DHT22;3032;49.484;11.112;2023-04-07T05:52:18;10.80;90.50
6008;DHT22;3032;49.484;11.112;2023-04-07T05:54:44;10.80;89.00
6008;DHT22;3032;49.484;11.112;2023-04-07T05:57:09;11.00;88.20
6008;DHT22;3032;49.484;11.112;2023-04-07T05:59:35;11.50;86.20
6008;DHT22;3032;49.484;11.112;2023-04-07T06:02:02;12.30;82.20
6008;DHT22;3032;49.484;11.112;2023-04-07T06:04:27;12.80;79.60
6008;DHT22;3032;49.484;11.112;2023-04-07T06:06:53;13.00;75.80
6008;DHT22;3032;49.484;11.112;2023-04-07T06:09:22;12.60;75.80
6008;DHT22;3032;49.484;11.112;2023-04-07T06:11:48;13.60;75.20
6008;DHT22;3032;49.484;11.112;2023-04-07T06:14:14;14.80;70.70
6008;DHT22;3032;49.484;11.112;2023-04-07T06:16:39;15.30;68.20
6008;DHT22;3032;49.484;11.112;2023-04-07T06:19:05;14.90;65.70
6008;DHT22;3032;49.484;11.112;2023-04-07T06:21:32;15.80;64.10
6008;DHT22;3032;49.484;11.112;2023-04-07T06:23:57;15.50;62.40
6008;DHT22;3032;49.484;11.112;2023-04-07T06:26:23;14.70;62.10
6008;DHT22;3032;49.484;11.112;2023-04-07T06:28:49;15.20;62.40
6008;DHT22;3032;49.484;11.112;2023-04-07T06:31:14;14.80;61.80
6008;DHT22;3032;49.484;11.112;2023-04-07T06:33:40;14.80;61.70
6008;DHT22;3032;49.484;11.112;2023-04-07T06:36:06;14.60;61.20
6008;DHT22;3032;49.484;11.112;2023-04-07T06:38:32;15.40;60.70
6008;DHT22;3032;49.484;11.112;2023-04-07T06:40:57;16.40;59.70
6008;DHT22;3032;49.484;11.112;2023-04-07T06:43:23;16.40;58.30
6008;DHT22;3032;49.484;11.112;2023-04-07T06:45:48;16.50;57.50
6008;DHT22;3032;49.484;11.112;2023-04-07T06:48:14;16.60;57.20
6008;DHT22;3032;49.484;11.112;2023-04-07T06:50:45;17.80;55.80
6008;DHT22;3032;49.484;11.112;2023-04-07T06:53:10;19.00;53.70
6008;DHT22;3032;49.484;11.112;2023-04-07T06:55:36;19.30;51.90
6008;DHT22;3032;49.484;11.112;2023-04-07T06:58:01;20.00;51.20
6008;DHT22;3032;49.484;11.112;2023-04-07T07:00:27;20.10;49.60
6008;DHT22;3032;49.484;11.112;2023-04-07T07:02:55;19.90;49.10
6008;DHT22;3032;49.484;11.112;2023-04-07T07:05:21;20.70;48.30
6008;DHT22;3032;49.484;11.112;2023-04-07T07:07:48;21.20;47.30
6008;DHT22;3032;49.484;11.112;2023-04-07T07:10:14;21.50;47.10
6008;DHT22;3032;49.484;11.112;2023-04-07T07:12:40;21.60;47.30
6008;DHT22;3032;49.484;11.112;2023-04-07T07:15:06;22.70;46.80
6008;DHT22;3032;49.484;11.112;2023-04-07T07:17:33;22.60;44.50
6008;DHT22;3032;49.484;11.112;2023-04-07T07:19:58;22.90;44.60
6008;DHT22;3032;49.484;11.112;2023-04-07T07:22:24;22.70;44.10
6008;DHT22;3032;49.484;11.112;2023-04-07T07:24:50;22.60;42.60
6008;DHT22;3032;49.484;11.112;2023-04-07T07:27:16;22.20;43.20
6008;DHT22;3032;49.484;11.112;2023-04-07T07:29:41;22.90;43.50
6008;DHT22;3032;49.484;11.112;2023-04-07T07:32:07;24.40;42.30
6008;DHT22;3032;49.484;11.112;2023-04-07T07:34:32;24.10;41.80
6008;DHT22;3032;49.484;11.112;2023-04-07T07:36:58;23.10;42.50
6008;DHT22;3032;49.484;11.112;2023-04-07T07:39:25;23.90;41.40
6008;DHT22;3032;49.484;11.112;2023-04-07T07:41:50;24.50;40.40
6008;DHT22;3032;49.484;11.112;2023-04-07T07:44:16;24.00;40.30
6008;DHT22;3032;49.484;11.112;2023-04-07T07:46:42;24.30;40.50
6008;DHT22;3032;49.484;11.112;2023-04-07T07:49:07;25.10;40.00
6008;DHT22;3032;49.484;11.112;2023-04-07T07:51:34;25.50;38.50
6008;DHT22;3032;49.484;11.112;2023-04-07T07:54:00;25.40;38.40
6008;DHT22;3032;49.484;11.112;2023-04-07T07:56:25;24.90;39.00
6008;DHT22;3032;49.484;11.112;2023-04-07T07:58:51;25.00;39.40
6008;DHT22;3032;49.484;11.112;2023-04-07T08:01:17;25.80;38.50
6008;DHT22;3032;49.484;11.112;2023-04-07T08:03:42;25.30;39.00
6008;DHT22;3032;49.484;11.112;2023-04-07T08:06:08;25.20;39.20
6008;DHT22;3032;49.484;11.112;2023-04-07T08:08:34;26.30;37.50
6008;DHT22;3032;49.484;11.112;2023-04-07T08:11:00;25.90;37.20
6008;DHT22;3032;49.484;11.112;2023-04-07T08:13:26;26.10;38.20
6008;DHT22;3032;49.484;11.112;2023-04-07T08:15:51;26.30;38.10
6008;DHT22;3032;49.484;11.112;2023-04-07T08:18:17;25.00;37.40
6008;DHT22;3032;49.484;11.112;2023-04-07T08:20:42;25.00;38.20
6008;DHT22;3032;49.484;11.112;2023-04-07T08:23:08;25.50;38.00
6008;DHT22;3032;49.484;11.112;2023-04-07T08:25:34;25.20;38.90
6008;DHT22;3032;49.484;11.112;2023-04-07T08:27:59;26.30;38.20
6008;DHT22;3032;49.484;11.112;2023-04-07T08:30:25;25.80;36.60
6008;DHT22;3032;49.484;11.112;2023-04-07T08:32:51;26.00;37.00
6008;DHT22;3032;49.484;11.112;2023-04-07T08:35:16;25.30;37.30
6008;DHT22;3032;49.484;11.112;2023-04-07T08:37:42;25.20;37.90
6008;DHT22;3032;49.484;11.112;2023-04-07T08:40:09;25.50;38.30
6008;DHT22;3032;49.484;11.112;2023-04-07T08:42:40;25.00;38.10
6008;DHT22;3032;49.484;11.112;2023-04-07T08:45:06;24.80;39.80
6008;DHT22;3032;49.484;11.112;2023-04-07T08:47:35;25.60;39.10
6008;DHT22;3032;49.484;11.112;2023-04-07T08:50:03;27.00;36.50
6008;DHT22;3032;49.484;11.112;2023-04-07T08:55:00;25.90;36.90
6008;DHT22;3032;49.484;11.112;2023-04-07T08:57:29;24.60;37.00
6008;DHT22;3032;49.484;11.112;2023-04-07T08:59:58;22.50;38.40
6008;DHT22;3032;49.484;11.112;2023-04-07T09:02:29;21.40;40.90
6008;DHT22;3032;49.484;11.112;2023-04-07T09:04:55;21.80;41.70
6008;DHT22;3032;49.484;11.112;2023-04-07T09:07:21;22.00;40.90
6008;DHT22;3032;49.484;11.112;2023-04-07T09:09:47;21.30;41.50
6008;DHT22;3032;49.484;11.112;2023-04-07T09:12:12;21.60;41.30
6008;DHT22;3032;49.484;11.112;2023-04-07T09:14:38;20.80;42.20
6008;DHT22;3032;49.484;11.112;2023-04-07T09:17:03;21.10;42.70
6008;DHT22;3032;49.484;11.112;2023-04-07T09:19:29;21.70;42.30
6008;DHT22;3032;49.484;11.112;2023-04-07T09:21:55;22.30;42.70
6008;DHT22;3032;49.484;11.112;2023-04-07T09:24:21;22.80;43.30
6008;DHT22;3032;49.484;11.112;2023-04-07T09:26:47;21.50;42.30
6008;DHT22;3032;49.484;11.112;2023-04-07T09:29:18;22.40;41.20
6008;DHT22;3032;49.484;11.112;2023-04-07T09:31:48;23.10;41.40
6008;DHT22;3032;49.484;11.112;2023-04-07T09:34:32;23.10;40.60
6008;DHT22;3032;49.484;11.112;2023-04-07T09:36:58;23.60;41.50
6008;DHT22;3032;49.484;11.112;2023-04-07T09:39:25;23.40;41.40
6008;DHT22;3032;49.484;11.112;2023-04-07T09:41:51;24.00;40.80
6008;DHT22;3032;49.484;11.112;2023-04-07T09:44:21;24.20;42.20
6008;DHT22;3032;49.484;11.112;2023-04-07T09:46:54;25.00;41.80
6008;DHT22;3032;49.484;11.112;2023-04-07T09:49:21;25.40;40.30
6008;DHT22;3032;49.484;11.112;2023-04-07T09:51:58;25.90;39.50
6008;DHT22;3032;49.484;11.112;2023-04-07T09:54:37;24.90;39.30
6008;DHT22;3032;49.484;11.112;2023-04-07T09:57:09;24.10;41.00
6008;DHT22;3032;49.484;11.112;2023-04-07T09:59:37;24.10;39.80
6008;DHT22;3032;49.484;11.112;2023-04-07T10:02:03;24.10;40.60
6008;DHT22;3032;49.484;11.112;2023-04-07T10:04:29;24.20;40.80
6008;DHT22;3032;49.484;11.112;2023-04-07T10:06:56;24.30;41.60
6008;DHT22;3032;49.484;11.112;2023-04-07T10:09:26;24.80;40.30
6008;DHT22;3032;49.484;11.112;2023-04-07T10:11:53;25.00;41.30
6008;DHT22;3032;49.484;11.112;2023-04-07T10:14:21;24.90;39.60
6008;DHT22;3032;49.484;11.112;2023-04-07T10:16:47;25.60;40.00
6008;DHT22;3032;49.484;11.112;2023-04-07T10:19:13;26.90;38.90
6008;DHT22;3032;49.484;11.112;2023-04-07T10:21:40;26.80;38.50
6008;DHT22;3032;49.484;11.112;2023-04-07T10:26:53;27.30;38.00
6008;DHT22;3032;49.484;11.112;2023-04-07T10:29:21;27.80;38.40
6008;DHT22;3032;49.484;11.112;2023-04-07T10:31:48;27.40;37.50
6008;DHT22;3032;49.484;11.112;2023-04-07T10:34:14;28.10;36.90
6008;DHT22;3032;49.484;11.112;2023-04-07T10:37:09;28.70;38.50
6008;DHT22;3032;49.484;11.112;2023-04-07T10:39:39;29.70;36.40
6008;DHT22;3032;49.484;11.112;2023-04-07T10:42:05;29.90;35.40
6008;DHT22;3032;49.484;11.112;2023-04-07T10:44:50;29.20;34.30
6008;DHT22;3032;49.484;11.112;2023-04-07T10:47:17;28.30;36.20
6008;DHT22;3032;49.484;11.112;2023-04-07T10:50:19;27.90;35.70
6008;DHT22;3032;49.484;11.112;2023-04-07T10:52:46;28.80;37.50
6008;DHT22;3032;49.484;11.112;2023-04-07T10:58:25;31.20;34.00
6008;DHT22;3032;49.484;11.112;2023-04-07T11:03:29;30.40;33.80
6008;DHT22;3032;49.484;11.112;2023-04-07T11:06:11;28.80;33.70
6008;DHT22;3032;49.484;11.112;2023-04-07T11:08:43;29.10;34.20
6008;DHT22;3032;49.484;11.112;2023-04-07T11:11:10;28.80;36.10
6008;DHT22;3032;49.484;11.112;2023-04-07T11:13:40;29.10;35.80
6008;DHT22;3032;49.484;11.112;2023-04-07T11:16:06;29.50;34.60
6008;DHT22;3032;49.484;11.112;2023-04-07T11:18:33;29.70;35.40
6008;DHT22;3032;49.484;11.112;2023-04-07T11:20:59;29.30;34.00
6008;DHT22;3032;49.484;11.112;2023-04-07T11:23:25;29.40;33.70
6008;DHT22;3032;49.484;11.112;2023-04-07T11:25:58;29.10;34.30
6008;DHT22;3032;49.484;11.112;2023-04-07T11:28:26;28.30;33.60
6008;DHT22;3032;49.484;11.112;2023-04-07T11:30:52;26.90;35.30
6008;DHT22;3032;49.484;11.112;2023-04-07T11:33:24;26.60;35.00
6008;DHT22;3032;49.484;11.112;2023-04-07T11:35:54;26.70;35.00
6008;DHT22;3032;49.484;11.112;2023-04-07T11:38:22;26.50;36.10
6008;DHT22;3032;49.484;11.112;2023-04-07T11:40:48;27.30;36.60
6008;DHT22;3032;49.484;11.112;2023-04-07T11:43:19;28.20;34.50
6008;DHT22;3032;49.484;11.112;2023-04-07T11:45:45;27.80;34.90
6008;DHT22;3032;49.484;11.112;2023-04-07T11:48:28;27.30;34.40
6008;DHT22;3032;49.484;11.112;2023-04-07T11:50:54;26.50;35.20
6008;DHT22;3032;49.484;11.112;2023-04-07T11:53:31;25.20;36.20
6008;DHT22;3032;49.484;11.112;2023-04-07T11:56:08;25.80;35.50
6008;DHT22;3032;49.484;11.112;2023-04-07T11:58:37;25.40;37.50
6008;DHT22;3032;49.484;11.112;2023-04-07T12:01:05;25.20;35.60
6008;DHT22;3032;49.484;11.112;2023-04-07T12:03:34;24.60;37.10
6008;DHT22;3032;49.484;11.112;2023-04-07T12:06:01;24.70;36.00
6008;DHT22;3032;49.484;11.112;2023-04-07T12:08:40;24.50;37.40
6008;DHT22;3032;49.484;11.112;2023-04-07T12:11:06;23.80;36.70
6008;DHT22;3032;49.484;11.112;2023-04-07T12:13:32;23.50;37.50
6008;DHT22;3032;49.484;11.112;2023-04-07T12:15:58;23.20;38.60
6008;DHT22;3032;49.484;11.112;2023-04-07T12:18:25;22.80;38.20
6008;DHT22;3032;49.484;11.112;2023-04-07T12:20:51;23.00;39.40
6008;DHT22;3032;49.484;11.112;2023-04-07T12:23:17;23.20;38.80
6008;DHT22;3032;49.484;11.112;2023-04-07T12:25:42;22.80;38.00
6008;DHT22;3032;49.484;11.112;2023-04-07T12:28:08;22.50;38.30
6008;DHT22;3032;49.484;11.112;2023-04-07T12:30:33;22.20;38.00
6008;DHT22;3032;49.484;11.112;2023-04-07T12:32:59;21.10;39.90
6008;DHT22;3032;49.484;11.112;2023-04-07T12:35:25;20.90;38.80
6008;DHT22;3032;49.484;11.112;2023-04-07T12:37:50;20.80;40.20
6008;DHT22;3032;49.484;11.112;2023-04-07T12:40:17;20.90;39.90
6008;DHT22;3032;49.484;11.112;2023-04-07T12:42:43;20.90;39.60
6008;DHT22;3032;49.484;11.112;2023-04-07T12:45:08;20.90;39.80
6008;DHT22;3032;49.484;11.112;2023-04-07T12:47:34;21.20;39.80
6008;DHT22;3032;49.484;11.112;2023-04-07T12:50:00;20.70;39.00
6008;DHT22;3032;49.484;11.112;2023-04-07T12:52:26;21.00;40.20
6008;DHT22;3032;49.484;11.112;2023-04-07T12:54:51;21.20;40.80
6008;DHT22;3032;49.484;11.112;2023-04-07T12:57:18;20.70;40.70
6008;DHT22;3032;49.484;11.112;2023-04-07T12:59:43;20.70;41.30
6008;DHT22;3032;49.484;11.112;2023-04-07T13:02:10;20.70;40.90
6008;DHT22;3032;49.484;11.112;2023-04-07T13:04:38;20.80;40.60
6008;DHT22;3032;49.484;11.112;2023-04-07T13:07:05;20.30;40.20
6008;DHT22;3032;49.484;11.112;2023-04-07T13:09:30;20.20;40.70
6008;DHT22;3032;49.484;11.112;2023-04-07T13:11:56;20.20;41.70
6008;DHT22;3032;49.484;11.112;2023-04-07T13:14:22;20.50;41.40
6008;DHT22;3032;49.484;11.112;2023-04-07T13:16:48;20.40;42.50
6008;DHT22;3032;49.484;11.112;2023-04-07T13:19:13;20.20;42.90
6008;DHT22;3032;49.484;11.112;2023-04-07T13:21:39;20.10;42.90
6008;DHT22;3032;49.484;11.112;2023-04-07T13:24:05;20.00;41.90
6008;DHT22;3032;49.484;11.112;2023-04-07T13:26:30;19.80;42.40
6008;DHT22;3032;49.484;11.112;2023-04-07T13:28:56;19.90;43.20
6008;DHT22;3032;49.484;11.112;2023-04-07T13:31:21;19.60;41.70
6008;DHT22;3032;49.484;11.112;2023-04-07T13:33:48;19.70;43.30
6008;DHT22;3032;49.484;11.112;2023-04-07T13:36:13;19.60;44.00
6008;DHT22;3032;49.484;11.112;2023-04-07T13:38:39;19.80;44.10
6008;DHT22;3032;49.484;11.112;2023-04-07T13:41:06;20.10;43.50
6008;DHT22;3032;49.484;11.112;2023-04-07T13:43:32;19.60;44.20
6008;DHT22;3032;49.484;11.112;2023-04-07T13:45:57;19.10;43.70
6008;DHT22;3032;49.484;11.112;2023-04-07T13:48:23;19.40;45.90
6008;DHT22;3032;49.484;11.112;2023-04-07T13:50:49;19.70;46.80
6008;DHT22;3032;49.484;11.112;2023-04-07T13:53:14;20.00;45.80
6008;DHT22;3032;49.484;11.112;2023-04-07T13:55:40;20.50;45.30
6008;DHT22;3032;49.484;11.112;2023-04-07T13:58:06;20.50;44.90
6008;DHT22;3032;49.484;11.112;2023-04-07T14:00:31;21.00;44.60
6008;DHT22;3032;49.484;11.112;2023-04-07T14:02:57;21.90;44.00
6008;DHT22;3032;49.484;11.112;2023-04-07T14:05:23;22.20;44.90
6008;DHT22;3032;49.484;11.112;2023-04-07T14:07:48;22.70;44.80
6008;DHT22;3032;49.484;11.112;2023-04-07T14:10:15;22.60;44.40
6008;DHT22;3032;49.484;11.112;2023-04-07T14:12:41;22.90;44.50
6008;DHT22;3032;49.484;11.112;2023-04-07T14:15:07;23.70;43.50
6008;DHT22;3032;49.484;11.112;2023-04-07T14:17:32;23.80;43.40
6008;DHT22;3032;49.484;11.112;2023-04-07T14:19:58;23.90;43.00
6008;DHT22;3032;49.484;11.112;2023-04-07T14:22:24;23.40;43.00
6008;DHT22;3032;49.484;11.112;2023-04-07T14:24:49;22.70;44.30
6008;DHT22;3032;49.484;11.112;2023-04-07T14:27:15;21.90;43.90
6008;DHT22;3032;49.484;11.112;2023-04-07T14:29:46;21.10;45.10
6008;DHT22;3032;49.484;11.112;2023-04-07T14:32:11;20.80;46.50
6008;DHT22;3032;49.484;11.112;2023-04-07T14:34:37;21.00;46.40
6008;DHT22;3032;49.484;11.112;2023-04-07T14:37:02;21.00;46.10
6008;DHT22;3032;49.484;11.112;2023-04-07T14:39:28;21.10;46.30
6008;DHT22;3032;49.484;11.112;2023-04-07T14:41:54;21.00;47.10
6008;DHT22;3032;49.484;11.112;2023-04-07T14:44:20;21.00;46.30
6008;DHT22;3032;49.484;11.112;2023-04-07T14:46:45;20.60;45.80
6008;DHT22;3032;49.484;11.112;2023-04-07T14:49:13;20.00;46.50
6008;DHT22;3032;49.484;11.112;2023-04-07T14:51:38;19.40;47.20
6008;DHT22;3032;49.484;11.112;2023-04-07T14:54:04;19.00;48.10
6008;DHT22;3032;49.484;11.112;2023-04-07T14:56:30;18.50;48.40
6008;DHT22;3032;49.484;11.112;2023-04-07T14:58:56;18.10;48.90
6008;DHT22;3032;49.484;11.112;2023-04-07T15:01:22;17.90;49.30
6008;DHT22;3032;49.484;11.112;2023-04-07T15:03:47;18.10;49.20
6008;DHT22;3032;49.484;11.112;2023-04-07T15:06:13;17.90;49.30
6008;DHT22;3032;49.484;11.112;2023-04-07T15:08:39;17.20;49.90
6008;DHT22;3032;49.484;11.112;2023-04-07T15:11:08;17.30;50.20
6008;DHT22;3032;49.484;11.112;2023-04-07T15:13:34;17.60;49.90
6008;DHT22;3032;49.484;11.112;2023-04-07T15:16:11;17.30;49.00
6008;DHT22;3032;49.484;11.112;2023-04-07T15:18:38;17.10;48.70
6008;DHT22;3032;49.484;11.112;2023-04-07T15:21:05;17.00;50.40
6008;DHT22;3032;49.484;11.112;2023-04-07T15:23:30;16.70;50.50
6008;DHT22;3032;49.484;11.112;2023-04-07T15:25:56;16.70;51.00
6008;DHT22;3032;49.484;11.112;2023-04-07T15:28:22;16.80;50.20
6008;DHT22;3032;49.484;11.112;2023-04-07T15:30:48;16.40;51.20
6008;DHT22;3032;49.484;11.112;2023-04-07T15:33:14;16.30;52.10
6008;DHT22;3032;49.484;11.112;2023-04-07T15:35:43;16.40;51.80
6008;DHT22;3032;49.484;11.112;2023-04-07T15:38:09;16.50;51.70
6008;DHT22;3032;49.484;11.112;2023-04-07T15:40:35;16.60;50.90
6008;DHT22;3032;49.484;11.112;2023-04-07T15:43:01;16.40;51.10
6008;DHT22;3032;49.484;11.112;2023-04-07T15:45:26;16.60;51.50
6008;DHT22;3032;49.484;11.112;2023-04-07T15:47:52;16.80;51.20
6008;DHT22;3032;49.484;11.112;2023-04-07T15:50:18;16.80;50.60
6008;DHT22;3032;49.484;11.112;2023-04-07T15:52:43;16.80;49.90
6008;DHT22;3032;49.484;11.112;2023-04-07T15:55:09;16.60;50.20
6008;DHT22;3032;49.484;11.112;2023-04-07T15:57:35;16.50;50.30
6008;DHT22;3032;49.484;11.112;2023-04-07T16:00:00;16.50;50.40
6008;DHT22;3032;49.484;11.112;2023-04-07T16:02:26;16.10;50.30
6008;DHT22;3032;49.484;11.112;2023-04-07T16:04:51;15.80;51.50
6008;DHT22;3032;49.484;11.112;2023-04-07T16:07:18;15.60;51.80
6008;DHT22;3032;49.484;11.112;2023-04-07T16:09:44;15.70;52.10